sensor_id;sensor_type;location;lat;lon;timestamp;pressure;altitude;pressure_sealevel;temperature;humidity
77702;BME280;66868;42.708;23.404;2023-07-09T15:07:37;95568.22;;;39.02;22.32
77702;BME280;66868;42.708;23.404;2023-07-09T15:10:03;95576.22;;;38.70;22.46
77702;BME280;66868;42.708;23.404;2023-07-09T15:12:34;95571.22;;;37.67;23.52
77702;BME280;66868;42.708;23.404;2023-07-09T15:17:47;95546.16;;;34.89;27.74
77702;BME280;66868;42.708;23.404;2023-07-09T15:20:22;95549.16;;;33.86;28.46
77702;BME280;66868;42.708;23.404;2023-07-09T15:22:49;95551.56;;;33.21;29.36
77702;BME280;66868;42.708;23.404;2023-07-09T15:25:27;95552.59;;;32.28;31.30
77702;BME280;66868;42.708;23.404;2023-07-09T15:27:52;95554.38;;;32.34;32.03
77702;BME280;66868;42.708;23.404;2023-07-09T15:30:23;95563.63;;;32.05;33.06
77702;BME280;66868;42.708;23.404;2023-07-09T15:32:50;95536.97;;;31.83;33.04
77702;BME280;66868;42.708;23.404;2023-07-09T15:35:19;95537.81;;;32.09;33.38
77702;BME280;66868;42.708;23.404;2023-07-09T15:37:45;95553.25;;;32.23;33.18
77702;BME280;66868;42.708;23.404;2023-07-09T15:40:25;95533.69;;;31.94;33.58
77702;BME280;66868;42.708;23.404;2023-07-09T15:42:53;95549.44;;;32.19;34.07
77702;BME280;66868;42.708;23.404;2023-07-09T15:45:20;95562.72;;;33.35;32.82
77702;BME280;66868;42.708;23.404;2023-07-09T15:47:47;95567.34;;;33.88;31.37
77702;BME280;66868;42.708;23.404;2023-07-09T15:50:21;95563.69;;;33.22;32.78
77702;BME280;66868;42.708;23.404;2023-07-09T15:52:48;95572.22;;;33.36;32.03
77702;BME280;66868;42.708;23.404;2023-07-09T15:55:16;95577.84;;;34.17;31.54
77702;BME280;66868;42.708;23.404;2023-07-09T15:57:42;95579.16;;;34.38;31.18
77702;BME280;66868;42.708;23.404;2023-07-09T16:00:27;95572.47;;;33.10;33.26
77702;BME280;66868;42.708;23.404;2023-07-09T16:02:54;95581.41;;;32.84;34.06
77702;BME280;66868;42.708;23.404;2023-07-09T16:05:24;95585.88;;;33.93;32.28
77702;BME280;66868;42.708;23.404;2023-07-09T16:07:51;95581.50;;;33.87;32.92
77702;BME280;66868;42.708;23.404;2023-07-09T16:10:18;95565.03;;;33.80;32.09
77702;BME280;66868;42.708;23.404;2023-07-09T16:12:45;95565.94;;;33.55;32.91
77702;BME280;66868;42.708;23.404;2023-07-09T16:15:12;95584.75;;;33.52;32.67
77702;BME280;66868;42.708;23.404;2023-07-09T16:17:42;95580.91;;;34.03;31.84
77702;BME280;66868;42.708;23.404;2023-07-09T16:20:14;95589.22;;;34.41;30.74
77702;BME280;66868;42.708;23.404;2023-07-09T16:22:41;95592.69;;;34.53;30.56
77702;BME280;66868;42.708;23.404;2023-07-09T16:27:39;95597.94;;;35.70;29.53
77702;BME280;66868;42.708;23.404;2023-07-09T16:30:18;95597.31;;;36.19;28.73
77702;BME280;66868;42.708;23.404;2023-07-09T16:32:45;95590.59;;;36.45;27.89
77702;BME280;66868;42.708;23.404;2023-07-09T16:35:12;95580.84;;;36.01;28.57
77702;BME280;66868;42.708;23.404;2023-07-09T16:37:38;95608.84;;;35.90;28.60
77702;BME280;66868;42.708;23.404;2023-07-09T16:40:04;95597.34;;;35.56;29.27
77702;BME280;66868;42.708;23.404;2023-07-09T16:42:30;95591.69;;;35.36;30.15
77702;BME280;66868;42.708;23.404;2023-07-09T16:44:55;95612.53;;;35.89;29.56
77702;BME280;66868;42.708;23.404;2023-07-09T16:47:21;95596.88;;;35.71;29.30
77702;BME280;66868;42.708;23.404;2023-07-09T16:49:47;95592.31;;;34.50;31.75
77702;BME280;66868;42.708;23.404;2023-07-09T16:52:20;95595.25;;;33.16;33.70
77702;BME280;66868;42.708;23.404;2023-07-09T16:54:46;95594.50;;;31.96;36.03
77702;BME280;66868;42.708;23.404;2023-07-09T16:57:14;95588.69;;;31.43;37.41
77702;BME280;66868;42.708;23.404;2023-07-09T16:59:40;95576.72;;;32.05;36.15
77702;BME280;66868;42.708;23.404;2023-07-09T17:02:35;95594.28;;;31.60;36.85
77702;BME280;66868;42.708;23.404;2023-07-09T17:05:02;95597.75;;;31.41;36.88
77702;BME280;66868;42.708;23.404;2023-07-09T17:07:33;95591.53;;;31.42;37.28
77702;BME280;66868;42.708;23.404;2023-07-09T17:09:58;95599.31;;;31.55;37.44
77702;BME280;66868;42.708;23.404;2023-07-09T17:12:26;95599.06;;;31.76;37.46
77702;BME280;66868;42.708;23.404;2023-07-09T17:14:52;95600.63;;;31.90;36.94
77702;BME280;66868;42.708;23.404;2023-07-09T17:17:20;95587.59;;;31.06;37.92
77702;BME280;66868;42.708;23.404;2023-07-09T17:19:46;95592.66;;;30.49;39.53
77702;BME280;66868;42.708;23.404;2023-07-09T17:22:28;95575.81;;;29.84;40.71
77702;BME280;66868;42.708;23.404;2023-07-09T17:24:54;95585.16;;;29.52;41.19
77702;BME280;66868;42.708;23.404;2023-07-09T17:27:19;95581.84;;;28.96;42.20
77702;BME280;66868;42.708;23.404;2023-07-09T17:29:45;95590.72;;;28.74;42.86
77702;BME280;66868;42.708;23.404;2023-07-09T17:32:12;95575.94;;;28.10;44.64
77702;BME280;66868;42.708;23.404;2023-07-09T17:34:40;95589.06;;;27.66;46.24
77702;BME280;66868;42.708;23.404;2023-07-09T17:37:11;95592.31;;;27.39;47.02
77702;BME280;66868;42.708;23.404;2023-07-09T17:39:37;95592.69;;;27.07;47.90
77702;BME280;66868;42.708;23.404;2023-07-09T17:42:13;95593.06;;;26.66;49.54
77702;BME280;66868;42.708;23.404;2023-07-09T17:44:39;95597.91;;;26.32;50.74
77702;BME280;66868;42.708;23.404;2023-07-09T17:47:12;95596.25;;;25.85;51.68
77702;BME280;66868;42.708;23.404;2023-07-09T17:49:39;95591.53;;;25.58;52.51
77702;BME280;66868;42.708;23.404;2023-07-09T17:52:19;95594.25;;;25.26;53.88
77702;BME280;66868;42.708;23.404;2023-07-09T17:54:46;95578.47;;;25.04;54.55
77702;BME280;66868;42.708;23.404;2023-07-09T17:57:21;95596.59;;;25.04;54.00
77702;BME280;66868;42.708;23.404;2023-07-09T17:59:49;95594.66;;;24.98;54.34
77702;BME280;66868;42.708;23.404;2023-07-09T18:02:16;95595.03;;;24.87;55.30
77702;BME280;66868;42.708;23.404;2023-07-09T18:04:42;95602.47;;;24.82;55.01
77702;BME280;66868;42.708;23.404;2023-07-09T18:07:19;95592.78;;;24.60;54.96
77702;BME280;66868;42.708;23.404;2023-07-09T18:09:45;95604.41;;;24.56;54.97
77702;BME280;66868;42.708;23.404;2023-07-09T18:12:13;95605.75;;;24.36;55.24
77702;BME280;66868;42.708;23.404;2023-07-09T18:14:42;95604.28;;;24.25;55.53
77702;BME280;66868;42.708;23.404;2023-07-09T18:17:16;95600.66;;;24.10;55.93
77702;BME280;66868;42.708;23.404;2023-07-09T18:19:43;95609.72;;;24.06;56.36
77702;BME280;66868;42.708;23.404;2023-07-09T18:22:16;95609.88;;;23.96;56.09
77702;BME280;66868;42.708;23.404;2023-07-09T18:24:43;95614.06;;;23.89;57.06
77702;BME280;66868;42.708;23.404;2023-07-09T18:27:17;95617.88;;;23.69;58.03
77702;BME280;66868;42.708;23.404;2023-07-09T18:29:45;95625.16;;;23.65;57.55
77702;BME280;66868;42.708;23.404;2023-07-09T18:32:16;95601.69;;;23.59;56.93
77702;BME280;66868;42.708;23.404;2023-07-09T18:34:46;95619.66;;;23.68;57.21
77702;BME280;66868;42.708;23.404;2023-07-09T18:37:11;95626.28;;;23.63;57.57
77702;BME280;66868;42.708;23.404;2023-07-09T18:39:37;95629.84;;;23.62;57.73
77702;BME280;66868;42.708;23.404;2023-07-09T18:42:03;95637.41;;;23.55;58.19
77702;BME280;66868;42.708;23.404;2023-07-09T18:44:29;95641.28;;;23.51;57.93
77702;BME280;66868;42.708;23.404;2023-07-09T18:46:54;95640.13;;;23.54;57.43
77702;BME280;66868;42.708;23.404;2023-07-09T18:49:19;95630.44;;;23.48;56.67
77702;BME280;66868;42.708;23.404;2023-07-09T18:51:45;95650.31;;;23.55;56.84
77702;BME280;66868;42.708;23.404;2023-07-09T18:54:16;95641.72;;;23.47;56.79
77702;BME280;66868;42.708;23.404;2023-07-09T18:56:46;95648.47;;;23.40;57.80
77702;BME280;66868;42.708;23.404;2023-07-09T18:59:20;95655.34;;;23.31;58.22
77702;BME280;66868;42.708;23.404;2023-07-09T19:01:47;95656.28;;;23.22;58.63
77702;BME280;66868;42.708;23.404;2023-07-09T19:04:18;95659.31;;;23.17;59.28
77702;BME280;66868;42.708;23.404;2023-07-09T19:06:45;95662.88;;;23.16;59.32
77702;BME280;66868;42.708;23.404;2023-07-09T19:09:23;95659.94;;;23.11;60.03
77702;BME280;66868;42.708;23.404;2023-07-09T19:11:50;95652.13;;;23.03;59.79
77702;BME280;66868;42.708;23.404;2023-07-09T19:14:19;95659.59;;;23.06;59.35
77702;BME280;66868;42.708;23.404;2023-07-09T19:16:49;95658.50;;;23.17;59.09
77702;BME280;66868;42.708;23.404;2023-07-09T19:19:18;95665.13;;;23.11;59.48
77702;BME280;66868;42.708;23.404;2023-07-09T19:21:45;95665.72;;;23.05;59.73
77702;BME280;66868;42.708;23.404;2023-07-09T19:24:26;95671.19;;;23.02;60.22
77702;BME280;66868;42.708;23.404;2023-07-09T19:26:53;95666.03;;;23.02;60.32
77702;BME280;66868;42.708;23.404;2023-07-09T19:29:20;95668.25;;;22.97;60.63
77702;BME280;66868;42.708;23.404;2023-07-09T19:31:57;95617.47;;;22.62;60.49
77702;BME280;66868;42.708;23.404;2023-07-09T19:34:27;95669.16;;;22.88;60.86
77702;BME280;66868;42.708;23.404;2023-07-09T19:36:58;95673.81;;;22.84;61.52
77702;BME280;66868;42.708;23.404;2023-07-09T19:39:31;95659.94;;;22.68;61.74
77702;BME280;66868;42.708;23.404;2023-07-09T19:42:08;95676.94;;;22.70;61.97
77702;BME280;66868;42.708;23.404;2023-07-09T19:44:35;95653.41;;;22.56;62.33
77702;BME280;66868;42.708;23.404;2023-07-09T19:47:02;95665.63;;;22.54;62.63
77702;BME280;66868;42.708;23.404;2023-07-09T19:49:27;95673.91;;;22.39;63.48
77702;BME280;66868;42.708;23.404;2023-07-09T19:51:53;95679.13;;;22.30;63.94
77702;BME280;66868;42.708;23.404;2023-07-09T19:54:19;95681.34;;;22.25;63.82
77702;BME280;66868;42.708;23.404;2023-07-09T19:56:45;95678.69;;;22.17;64.37
77702;BME280;66868;42.708;23.404;2023-07-09T19:59:12;95675.59;;;21.95;65.41
77702;BME280;66868;42.708;23.404;2023-07-09T20:01:38;95666.81;;;21.79;65.83
77702;BME280;66868;42.708;23.404;2023-07-09T20:04:05;95680.09;;;21.84;66.43
77702;BME280;66868;42.708;23.404;2023-07-09T20:06:31;95679.72;;;21.79;65.75
77702;BME280;66868;42.708;23.404;2023-07-09T20:08:57;95676.69;;;21.83;66.30
77702;BME280;66868;42.708;23.404;2023-07-09T20:11:23;95680.91;;;21.84;65.94
77702;BME280;66868;42.708;23.404;2023-07-09T20:13:48;95664.78;;;21.82;65.84
77702;BME280;66868;42.708;23.404;2023-07-09T20:16:27;95665.66;;;21.73;66.20
77702;BME280;66868;42.708;23.404;2023-07-09T20:18:58;95660.94;;;21.69;66.28
77702;BME280;66868;42.708;23.404;2023-07-09T20:21:26;95681.72;;;21.85;66.01
77702;BME280;66868;42.708;23.404;2023-07-09T20:23:51;95682.97;;;21.81;66.24
77702;BME280;66868;42.708;23.404;2023-07-09T20:26:17;95671.88;;;21.71;66.44
77702;BME280;66868;42.708;23.404;2023-07-09T20:28:42;95683.00;;;21.71;66.30
77702;BME280;66868;42.708;23.404;2023-07-09T20:31:17;95670.50;;;21.49;67.58
77702;BME280;66868;42.708;23.404;2023-07-09T20:33:43;95669.09;;;21.27;68.86
77702;BME280;66868;42.708;23.404;2023-07-09T20:36:08;95685.53;;;21.26;69.68
77702;BME280;66868;42.708;23.404;2023-07-09T20:38:34;95672.41;;;21.00;70.63
77702;BME280;66868;42.708;23.404;2023-07-09T20:40:59;95672.41;;;20.91;70.84
77702;BME280;66868;42.708;23.404;2023-07-09T20:43:27;95688.84;;;20.90;70.99
77702;BME280;66868;42.708;23.404;2023-07-09T20:45:53;95682.78;;;20.71;71.76
77702;BME280;66868;42.708;23.404;2023-07-09T20:48:20;95671.00;;;20.40;73.43
77702;BME280;66868;42.708;23.404;2023-07-09T20:50:46;95695.22;;;20.38;73.84
77702;BME280;66868;42.708;23.404;2023-07-09T20:53:17;95692.63;;;20.28;74.31
77702;BME280;66868;42.708;23.404;2023-07-09T20:55:45;95673.53;;;20.11;74.64
77702;BME280;66868;42.708;23.404;2023-07-09T20:58:15;95678.94;;;20.08;74.90
77702;BME280;66868;42.708;23.404;2023-07-09T21:00:42;95686.91;;;20.05;75.23
77702;BME280;66868;42.708;23.404;2023-07-09T21:03:11;95684.75;;;20.01;75.36
77702;BME280;66868;42.708;23.404;2023-07-09T21:05:38;95666.72;;;19.81;75.88
77702;BME280;66868;42.708;23.404;2023-07-09T21:08:15;95683.75;;;19.82;76.23
77702;BME280;66868;42.708;23.404;2023-07-09T21:10:42;95682.66;;;19.75;76.27
77702;BME280;66868;42.708;23.404;2023-07-09T21:13:19;95683.63;;;19.74;76.15
77702;BME280;66868;42.708;23.404;2023-07-09T21:15:49;95679.94;;;19.67;76.49
77702;BME280;66868;42.708;23.404;2023-07-09T21:18:16;95687.50;;;19.59;76.92
77702;BME280;66868;42.708;23.404;2023-07-09T21:20:43;95690.13;;;19.48;77.25
77702;BME280;66868;42.708;23.404;2023-07-09T21:23:13;95680.38;;;19.42;76.25
77702;BME280;66868;42.708;23.404;2023-07-09T21:25:39;95674.94;;;19.35;76.89
77702;BME280;66868;42.708;23.404;2023-07-09T21:28:04;95692.09;;;19.35;77.54
77702;BME280;66868;42.708;23.404;2023-07-09T21:30:30;95682.97;;;19.21;78.52
77702;BME280;66868;42.708;23.404;2023-07-09T21:32:56;95677.63;;;19.04;78.86
77702;BME280;66868;42.708;23.404;2023-07-09T21:35:24;95693.94;;;19.03;78.94
77702;BME280;66868;42.708;23.404;2023-07-09T21:37:51;95690.28;;;18.95;79.50
77702;BME280;66868;42.708;23.404;2023-07-09T21:40:25;95697.09;;;18.85;79.63
77702;BME280;66868;42.708;23.404;2023-07-09T21:42:52;95689.22;;;18.77;79.88
77702;BME280;66868;42.708;23.404;2023-07-09T21:45:19;95690.53;;;18.72;79.57
77702;BME280;66868;42.708;23.404;2023-07-09T21:47:46;95688.56;;;18.64;80.19
77702;BME280;66868;42.708;23.404;2023-07-09T21:50:14;95684.41;;;18.52;80.26
77702;BME280;66868;42.708;23.404;2023-07-09T21:52:41;95686.91;;;18.53;80.60
77702;BME280;66868;42.708;23.404;2023-07-09T21:55:20;95672.16;;;18.35;81.02
77702;BME280;66868;42.708;23.404;2023-07-09T21:57:47;95670.88;;;18.29;81.05
77702;BME280;66868;42.708;23.404;2023-07-09T22:00:17;95688.50;;;18.23;81.98
77702;BME280;66868;42.708;23.404;2023-07-09T22:02:44;95685.72;;;18.15;82.02
77702;BME280;66868;42.708;23.404;2023-07-09T22:05:19;95684.81;;;18.04;82.11
77702;BME280;66868;42.708;23.404;2023-07-09T22:07:45;95690.19;;;18.01;82.00
77702;BME280;66868;42.708;23.404;2023-07-09T22:10:14;95680.31;;;17.86;82.19
77702;BME280;66868;42.708;23.404;2023-07-09T22:12:44;95678.13;;;17.81;82.33
77702;BME280;66868;42.708;23.404;2023-07-09T22:15:20;95668.38;;;17.75;82.43
77702;BME280;66868;42.708;23.404;2023-07-09T22:17:46;95690.72;;;17.84;82.84
77702;BME280;66868;42.708;23.404;2023-07-09T22:20:12;95685.00;;;17.81;82.88
77702;BME280;66868;42.708;23.404;2023-07-09T22:22:38;95688.97;;;17.85;82.51
77702;BME280;66868;42.708;23.404;2023-07-09T22:25:08;95696.72;;;17.94;81.91
77702;BME280;66868;42.708;23.404;2023-07-09T22:27:37;95693.38;;;17.94;81.89
77702;BME280;66868;42.708;23.404;2023-07-09T22:30:03;95675.06;;;17.98;80.77
77702;BME280;66868;42.708;23.404;2023-07-09T22:32:28;95690.41;;;18.09;80.93
77702;BME280;66868;42.708;23.404;2023-07-09T22:35:04;95693.16;;;18.18;80.43
77702;BME280;66868;42.708;23.404;2023-07-09T22:37:30;95664.78;;;18.09;80.21
77702;BME280;66868;42.708;23.404;2023-07-09T22:39:57;95688.63;;;18.21;80.63
77702;BME280;66868;42.708;23.404;2023-07-09T22:42:22;95683.88;;;18.17;80.83
77702;BME280;66868;42.708;23.404;2023-07-09T22:44:48;95673.16;;;18.12;80.83
77702;BME280;66868;42.708;23.404;2023-07-09T22:47:17;95667.03;;;18.03;80.74
77702;BME280;66868;42.708;23.404;2023-07-09T22:49:44;95677.84;;;18.06;80.31
77702;BME280;66868;42.708;23.404;2023-07-09T22:52:10;95683.44;;;18.00;80.17
77702;BME280;66868;42.708;23.404;2023-07-09T22:54:37;95674.16;;;17.88;80.83
77702;BME280;66868;42.708;23.404;2023-07-09T22:57:02;95685.34;;;17.76;81.60
77702;BME280;66868;42.708;23.404;2023-07-09T22:59:28;95678.84;;;17.72;81.88
77702;BME280;66868;42.708;23.404;2023-07-09T23:01:53;95676.50;;;17.58;82.53
77702;BME280;66868;42.708;23.404;2023-07-09T23:04:19;95680.47;;;17.51;83.08
77702;BME280;66868;42.708;23.404;2023-07-09T23:06:44;95677.66;;;17.54;82.48
77702;BME280;66868;42.708;23.404;2023-07-09T23:09:09;95682.78;;;17.54;82.62
77702;BME280;66868;42.708;23.404;2023-07-09T23:11:38;95680.47;;;17.51;82.18
77702;BME280;66868;42.708;23.404;2023-07-09T23:14:15;95677.69;;;17.65;81.31
77702;BME280;66868;42.708;23.404;2023-07-09T23:16:42;95669.56;;;17.60;81.06
77702;BME280;66868;42.708;23.404;2023-07-09T23:19:28;95671.75;;;17.64;80.89
77702;BME280;66868;42.708;23.404;2023-07-09T23:21:55;95661.38;;;17.55;80.38
77702;BME280;66868;42.708;23.404;2023-07-09T23:24:25;95683.97;;;17.72;80.08
77702;BME280;66868;42.708;23.404;2023-07-09T23:26:52;95683.75;;;17.75;79.66
77702;BME280;66868;42.708;23.404;2023-07-09T23:29:18;95680.00;;;17.79;79.07
77702;BME280;66868;42.708;23.404;2023-07-09T23:31:48;95674.06;;;17.79;78.86
77702;BME280;66868;42.708;23.404;2023-07-09T23:34:16;95679.28;;;17.88;78.62
77702;BME280;66868;42.708;23.404;2023-07-09T23:36:42;95676.16;;;17.85;78.69
77702;BME280;66868;42.708;23.404;2023-07-09T23:39:09;95677.28;;;17.92;77.89
77702;BME280;66868;42.708;23.404;2023-07-09T23:41:37;95672.50;;;17.98;77.44
77702;BME280;66868;42.708;23.404;2023-07-09T23:44:04;95675.53;;;17.92;77.64
77702;BME280;66868;42.708;23.404;2023-07-09T23:46:37;95655.69;;;17.74;78.35
77702;BME280;66868;42.708;23.404;2023-07-09T23:49:05;95676.50;;;17.80;78.73
77702;BME280;66868;42.708;23.404;2023-07-09T23:51:31;95663.25;;;17.64;78.87
77702;BME280;66868;42.708;23.404;2023-07-09T23:53:57;95677.69;;;17.65;79.25
77702;BME280;66868;42.708;23.404;2023-07-09T23:56:30;95673.59;;;17.62;79.01
77702;BME280;66868;42.708;23.404;2023-07-09T23:58:58;95674.88;;;17.46;79.72
